createdAt,value
2024-01-14T00:00:35.828Z,0.82
2024-01-14T00:03:02.957Z,1.20
2024-01-14T00:05:29.915Z,1.17
2024-01-14T00:07:57.068Z,0.98
2024-01-14T00:10:23.662Z,1.15
2024-01-14T00:12:50.212Z,1.55
2024-01-14T00:15:19.100Z,1.35
2024-01-14T00:17:46.725Z,1.53
2024-01-14T00:20:13.600Z,0.80
2024-01-14T00:22:40.329Z,1.15
2024-01-14T00:25:07.456Z,1.00
2024-01-14T00:27:34.099Z,0.85
2024-01-14T00:30:01.559Z,0.90
2024-01-14T00:32:28.255Z,0.90
2024-01-14T00:34:54.913Z,1.35
2024-01-14T00:37:21.418Z,1.20
2024-01-14T00:39:47.906Z,1.30
2024-01-14T00:42:14.421Z,1.23
2024-01-14T00:44:42.669Z,1.00
2024-01-14T00:47:09.288Z,1.10
2024-01-14T00:49:36.086Z,1.25
2024-01-14T00:52:02.959Z,1.90
2024-01-14T00:54:29.695Z,1.10
2024-01-14T00:56:56.280Z,0.82
2024-01-14T00:59:23.023Z,0.90
2024-01-14T01:01:49.560Z,0.98
2024-01-14T01:04:16.127Z,1.55
2024-01-14T01:06:42.781Z,1.85
2024-01-14T01:09:09.378Z,1.60
2024-01-14T01:11:35.954Z,1.45
2024-01-14T01:14:02.573Z,1.73
2024-01-14T01:16:29.164Z,2.25
2024-01-14T01:18:56.192Z,1.55
2024-01-14T01:21:23.576Z,1.33
2024-01-14T01:23:50.560Z,1.52
2024-01-14T01:26:17.237Z,1.67
2024-01-14T01:28:43.909Z,1.77
2024-01-14T01:41:41.090Z,2.65
2024-01-14T01:44:07.913Z,1.90
2024-01-14T01:46:35.856Z,1.98
2024-01-14T01:49:02.836Z,2.60
2024-01-14T01:51:30.366Z,1.95
2024-01-14T01:53:57.327Z,1.73
2024-01-14T01:56:23.947Z,2.05
2024-01-14T01:58:50.469Z,1.52
2024-01-14T02:01:17.047Z,1.30
2024-01-14T02:03:43.686Z,1.25
2024-01-14T02:06:11.145Z,1.35
2024-01-14T02:08:37.911Z,1.60
2024-01-14T02:11:04.617Z,1.50
2024-01-14T02:13:31.145Z,1.55
2024-01-14T02:15:57.814Z,2.25
2024-01-14T02:18:24.495Z,1.63
2024-01-14T02:20:51.088Z,1.73
2024-01-14T02:23:20.869Z,1.52
2024-01-14T02:25:47.572Z,1.60
2024-01-14T02:28:15.846Z,1.17
2024-01-14T02:30:42.436Z,0.68
2024-01-14T02:33:09.119Z,1.00
2024-01-14T02:35:35.791Z,0.57
2024-01-14T02:38:02.273Z,0.50
2024-01-14T02:40:28.780Z,0.90
2024-01-14T02:42:55.436Z,0.50
2024-01-14T02:45:22.058Z,0.80
2024-01-14T02:47:49.018Z,0.63
2024-01-14T02:50:15.674Z,0.85
2024-01-14T02:52:42.188Z,1.17
2024-01-14T02:55:08.775Z,1.63
2024-01-14T02:57:35.535Z,1.60
2024-01-14T03:00:02.288Z,1.92
2024-01-14T03:02:28.909Z,2.38
2024-01-14T03:04:55.416Z,1.88
2024-01-14T03:07:21.913Z,2.28
2024-01-14T03:09:48.696Z,1.75
2024-01-14T03:12:15.344Z,1.70
2024-01-14T03:14:41.851Z,1.73
2024-01-14T03:17:08.363Z,1.45
2024-01-14T03:19:34.994Z,1.33
2024-01-14T03:22:01.610Z,1.13
2024-01-14T03:24:28.290Z,1.00
2024-01-14T03:26:54.947Z,1.00
2024-01-14T03:29:21.711Z,0.95
2024-01-14T03:31:48.230Z,0.43
2024-01-14T03:34:14.782Z,0.82
2024-01-14T03:36:41.306Z,0.57
2024-01-14T03:39:08.374Z,0.60
2024-01-14T03:41:35.034Z,0.45
2024-01-14T03:44:01.547Z,0.93
2024-01-14T03:46:28.278Z,0.55
2024-01-14T03:48:55.038Z,0.45
2024-01-14T03:51:21.645Z,0.75
2024-01-14T03:53:48.268Z,0.60
2024-01-14T03:56:14.907Z,0.38
2024-01-14T03:58:41.577Z,0.90
2024-01-14T04:03:39.501Z,0.68
2024-01-14T04:06:06.530Z,0.43
2024-01-14T04:08:33.092Z,0.28
2024-01-14T04:10:59.792Z,0.70
2024-01-14T04:13:26.305Z,0.98
2024-01-14T04:15:52.822Z,0.45
2024-01-14T04:18:19.465Z,0.70
2024-01-14T04:20:46.224Z,1.23
2024-01-14T04:23:12.899Z,0.20
2024-01-14T04:25:39.598Z,0.68
2024-01-14T04:28:06.182Z,0.40
2024-01-14T04:30:32.898Z,0.95
2024-01-14T04:32:59.793Z,0.40
2024-01-14T04:35:26.514Z,0.82
2024-01-14T04:37:53.184Z,0.60
2024-01-14T04:40:19.734Z,0.35
2024-01-14T04:42:46.256Z,1.10
2024-01-14T04:45:12.909Z,0.50
2024-01-14T04:47:39.769Z,0.55
2024-01-14T04:50:06.819Z,0.70
2024-01-14T04:52:33.461Z,1.33
2024-01-14T04:54:59.975Z,1.35
2024-01-14T04:57:26.733Z,1.92
2024-01-14T04:59:53.278Z,1.48
2024-01-14T05:02:19.980Z,1.05
2024-01-14T05:04:47.158Z,1.35
2024-01-14T05:07:13.685Z,1.27
2024-01-14T05:09:40.209Z,0.77
2024-01-14T05:12:06.912Z,0.90
2024-01-14T05:14:33.507Z,0.77
2024-01-14T05:17:00.070Z,0.52
2024-01-14T05:19:27.239Z,1.23
2024-01-14T05:21:54.328Z,1.05
2024-01-14T05:24:23.205Z,0.90
2024-01-14T05:26:49.776Z,1.30
2024-01-14T05:29:16.339Z,1.10
2024-01-14T05:31:42.953Z,1.10
2024-01-14T05:34:09.536Z,1.13
2024-01-14T05:36:37.199Z,1.55
2024-01-14T05:39:05.650Z,1.42
2024-01-14T05:41:32.472Z,0.77
2024-01-14T05:43:59.059Z,0.90
2024-01-14T05:46:25.623Z,0.65
2024-01-14T05:48:52.278Z,1.20
2024-01-14T05:51:19.046Z,0.63
2024-01-14T05:53:45.844Z,1.10
2024-01-14T05:56:12.411Z,1.02
2024-01-14T05:58:41.029Z,0.90
2024-01-14T06:01:07.584Z,0.70
2024-01-14T06:03:34.166Z,0.57
2024-01-14T06:06:00.919Z,0.70
2024-01-14T06:08:27.538Z,0.70
2024-01-14T06:10:54.047Z,0.75
2024-01-14T06:13:20.635Z,0.50
2024-01-14T06:15:47.230Z,0.38
2024-01-14T06:18:14.203Z,0.70
2024-01-14T06:20:40.773Z,0.47
2024-01-14T06:23:07.270Z,0.57
2024-01-14T06:25:33.851Z,0.50
2024-01-14T06:28:00.427Z,0.20
2024-01-14T06:30:27.119Z,0.75
2024-01-14T06:32:56.969Z,0.30
2024-01-14T06:37:50.993Z,0.30
2024-01-14T06:40:21.790Z,0.50
2024-01-14T06:42:55.157Z,0.40
2024-01-14T06:45:22.431Z,1.10
2024-01-14T06:47:49.636Z,0.57
2024-01-14T06:50:17.005Z,0.50
2024-01-14T06:52:43.927Z,0.82
2024-01-14T06:55:12.777Z,0.75
2024-01-14T06:57:39.526Z,1.13
2024-01-14T07:00:07.052Z,0.60
2024-01-14T07:02:33.629Z,0.85
2024-01-14T07:05:00.339Z,0.68
2024-01-14T07:07:26.862Z,0.88
2024-01-14T07:09:53.460Z,0.60
2024-01-14T07:12:25.287Z,0.82
2024-01-14T07:14:52.557Z,0.85
2024-01-14T07:17:20.378Z,1.42
2024-01-14T07:19:47.034Z,1.85
2024-01-14T07:22:13.832Z,2.03
2024-01-14T07:24:40.402Z,1.40
2024-01-14T07:27:07.208Z,0.60
2024-01-14T07:29:34.284Z,0.60
2024-01-14T07:32:03.422Z,1.20
2024-01-14T07:34:31.793Z,0.82
2024-01-14T07:36:58.311Z,0.70
2024-01-14T07:39:25.519Z,1.10
2024-01-14T07:41:52.120Z,0.95
2024-01-14T07:44:18.776Z,1.05
2024-01-14T07:46:46.650Z,1.10
2024-01-14T07:49:13.288Z,1.00
2024-01-14T07:51:40.001Z,1.55
2024-01-14T07:54:06.889Z,0.98
2024-01-14T07:56:33.684Z,1.10
2024-01-14T07:59:00.406Z,1.92
2024-01-14T08:01:27.002Z,0.93
2024-01-14T08:03:53.749Z,0.85
2024-01-14T08:06:22.174Z,1.08
2024-01-14T08:08:49.022Z,1.75
2024-01-14T08:11:15.554Z,1.67
2024-01-14T08:13:42.548Z,1.42
2024-01-14T08:16:09.225Z,2.17
2024-01-14T08:18:35.904Z,2.33
2024-01-14T08:21:02.749Z,1.95
2024-01-14T08:23:35.298Z,1.70
2024-01-14T08:26:05.731Z,1.67
2024-01-14T08:28:32.688Z,2.28
2024-01-14T08:30:59.377Z,1.58
2024-01-14T08:33:26.192Z,1.55
2024-01-14T08:35:52.915Z,1.60
2024-01-14T08:38:19.891Z,1.85
2024-01-14T08:40:46.407Z,1.83
2024-01-14T08:43:12.939Z,1.50
2024-01-14T08:45:39.642Z,1.80
2024-01-14T08:48:07.975Z,1.55
2024-01-14T08:50:35.586Z,1.58
2024-01-14T08:53:02.287Z,1.85
2024-01-14T08:55:29.836Z,1.60
2024-01-14T08:57:56.585Z,1.30
2024-01-14T09:00:23.594Z,1.25
2024-01-14T09:02:50.342Z,1.42
2024-01-14T09:05:18.162Z,1.90
2024-01-14T09:07:44.756Z,1.10
2024-01-14T09:10:11.775Z,1.50
2024-01-14T09:12:38.612Z,0.98
2024-01-14T09:15:05.738Z,1.38
2024-01-14T09:17:33.020Z,1.55
2024-01-14T09:19:59.812Z,1.40
2024-01-14T09:22:26.450Z,1.17
2024-01-14T09:24:52.992Z,2.38
2024-01-14T09:27:19.534Z,1.50
2024-01-14T09:29:46.225Z,1.50
2024-01-14T09:32:12.842Z,1.30
2024-01-14T09:34:41.317Z,1.38
2024-01-14T09:37:08.068Z,1.50
2024-01-14T09:39:34.839Z,1.10
2024-01-14T09:42:34.430Z,1.23
2024-01-14T09:45:01.753Z,2.67
2024-01-14T09:47:32.667Z,2.03
2024-01-14T09:50:00.499Z,2.67
2024-01-14T09:52:27.267Z,2.70
2024-01-14T09:54:53.849Z,2.80
2024-01-14T09:57:23.904Z,2.35
2024-01-14T10:00:10.450Z,3.95
2024-01-14T10:02:38.407Z,2.72
2024-01-14T10:05:05.992Z,3.28
2024-01-14T10:07:33.615Z,3.13
2024-01-14T10:10:01.036Z,3.40
2024-01-14T10:12:28.067Z,3.03
2024-01-14T10:15:00.979Z,3.13
2024-01-14T10:17:28.920Z,3.10
2024-01-14T10:19:56.295Z,3.10
2024-01-14T10:22:23.406Z,3.30
2024-01-14T10:24:54.324Z,3.38
2024-01-14T10:27:34.793Z,3.92
2024-01-14T10:30:15.758Z,3.17
2024-01-14T10:33:16.879Z,3.53
2024-01-14T10:35:31.379Z,3.35
2024-01-14T10:37:59.118Z,3.15
2024-01-14T10:40:26.626Z,3.72
2024-01-14T10:42:54.233Z,3.47
2024-01-14T10:45:21.663Z,3.22
2024-01-14T10:47:49.247Z,3.17
2024-01-14T10:50:18.638Z,3.08
2024-01-14T10:52:51.076Z,3.42
2024-01-14T10:58:28.582Z,3.65
2024-01-14T11:01:02.810Z,3.60
2024-01-14T11:03:30.949Z,2.75
2024-01-14T11:06:44.764Z,3.42
2024-01-14T11:09:44.552Z,3.33
2024-01-14T11:12:20.966Z,3.38
2024-01-14T11:14:55.205Z,2.95
2024-01-14T11:20:17.860Z,3.63
2024-01-14T11:50:54.311Z,3.78
2024-01-14T11:53:21.252Z,4.03
2024-01-14T11:59:10.973Z,4.45
2024-01-14T12:07:01.513Z,3.83
2024-01-14T12:09:28.391Z,3.22
2024-01-14T12:11:56.200Z,3.90
2024-01-14T12:14:22.892Z,3.92
2024-01-14T12:16:49.566Z,4.05
2024-01-14T12:19:27.879Z,3.17
2024-01-14T12:21:55.367Z,3.03
2024-01-14T12:24:21.950Z,3.20
2024-01-14T12:26:48.705Z,3.92
2024-01-14T12:29:15.296Z,3.92
2024-01-14T12:32:16.539Z,3.67
2024-01-14T12:48:11.877Z,3.88
2024-01-14T13:04:28.992Z,3.17
2024-01-14T14:51:22.393Z,3.50
2024-01-14T14:53:57.044Z,3.10
2024-01-14T15:01:43.629Z,3.17
2024-01-14T15:04:13.929Z,2.92
2024-01-14T15:06:42.334Z,3.35
2024-01-14T15:09:09.728Z,3.35
2024-01-14T15:11:39.360Z,3.45
2024-01-14T15:14:07.884Z,3.33
2024-01-14T15:16:34.867Z,3.53
2024-01-14T15:19:01.949Z,4.43
2024-01-14T15:21:29.480Z,3.65
2024-01-14T15:23:56.158Z,4.45
2024-01-14T15:26:23.670Z,3.97
2024-01-14T15:28:50.477Z,3.90
2024-01-14T15:31:17.354Z,4.88
2024-01-14T15:33:53.639Z,4.85
2024-01-14T15:39:15.218Z,3.78
2024-01-14T15:42:04.202Z,4.18
2024-01-14T15:44:36.586Z,4.45
2024-01-14T15:47:05.473Z,4.38
2024-01-14T15:49:32.938Z,3.80
2024-01-14T15:52:08.652Z,4.22
2024-01-14T15:54:35.584Z,4.00
2024-01-14T15:57:18.366Z,4.15
2024-01-14T15:59:47.266Z,4.25
2024-01-14T16:02:17.414Z,4.50
2024-01-14T16:04:45.139Z,4.95
2024-01-14T16:07:11.895Z,4.43
2024-01-14T16:09:40.109Z,3.60
2024-01-14T16:12:08.260Z,5.10
2024-01-14T16:14:36.390Z,4.72
2024-01-14T16:17:05.785Z,4.32
2024-01-14T16:19:33.177Z,4.65
2024-01-14T16:22:00.312Z,4.03
2024-01-14T16:24:28.299Z,4.60
2024-01-14T16:26:55.672Z,4.68
2024-01-14T16:29:24.080Z,4.80
2024-01-14T16:31:51.082Z,4.88
2024-01-14T16:34:17.960Z,6.78
2024-01-14T16:36:46.510Z,6.95
2024-01-14T16:39:14.410Z,5.05
2024-01-14T16:41:44.225Z,6.10
2024-01-14T16:44:12.353Z,5.68
2024-01-14T16:46:40.568Z,5.20
2024-01-14T16:49:08.336Z,5.63
2024-01-14T16:51:38.814Z,6.10
2024-01-14T16:54:08.120Z,4.93
2024-01-14T16:56:38.577Z,9.35
2024-01-14T17:01:36.598Z,5.15
2024-01-14T17:04:03.828Z,5.65
2024-01-14T17:06:33.217Z,5.90
2024-01-14T17:09:02.583Z,5.65
2024-01-14T17:11:32.046Z,6.13
2024-01-14T17:13:58.742Z,5.47
2024-01-14T17:16:28.639Z,4.38
2024-01-14T17:21:27.261Z,5.05
2024-01-14T17:23:54.557Z,5.07
2024-01-14T17:26:21.755Z,5.15
2024-01-14T17:28:48.980Z,5.53
2024-01-14T17:31:17.232Z,4.75
2024-01-14T17:33:45.459Z,4.68
2024-01-14T17:36:13.492Z,4.78
2024-01-14T17:38:40.649Z,4.97
2024-01-14T17:41:09.274Z,5.57
2024-01-14T17:43:38.357Z,4.45
2024-01-14T17:46:08.276Z,5.07
2024-01-14T17:48:41.664Z,4.93
2024-01-14T17:51:10.111Z,5.30
2024-01-14T17:53:38.326Z,5.80
2024-01-14T17:56:05.897Z,5.30
2024-01-14T17:58:32.703Z,4.55
2024-01-14T18:01:00.860Z,5.07
2024-01-14T18:03:27.845Z,4.63
2024-01-14T18:05:54.873Z,4.78
2024-01-14T18:08:22.093Z,5.10
2024-01-14T18:10:52.098Z,5.18
2024-01-14T18:13:19.293Z,5.25
2024-01-14T18:15:47.201Z,5.32
2024-01-14T18:18:16.504Z,6.00
2024-01-14T18:20:43.646Z,5.72
2024-01-14T18:23:13.037Z,5.50
2024-01-14T18:25:44.829Z,5.78
2024-01-14T18:28:12.698Z,6.18
2024-01-14T18:30:40.756Z,4.72
2024-01-14T18:33:11.888Z,4.57
2024-01-14T18:35:44.153Z,5.97
2024-01-14T18:40:56.039Z,5.93
2024-01-14T18:43:22.791Z,6.55
2024-01-14T18:45:49.493Z,5.82
2024-01-14T18:48:23.431Z,5.88
2024-01-14T18:50:52.750Z,5.38
2024-01-14T18:53:19.553Z,5.32
2024-01-14T18:55:46.208Z,4.93
2024-01-14T19:00:54.600Z,5.22
2024-01-14T19:03:21.470Z,6.43
2024-01-14T19:05:48.898Z,4.53
2024-01-14T19:11:01.872Z,6.00
2024-01-14T19:13:29.375Z,5.10
2024-01-14T19:15:56.303Z,5.75
2024-01-14T19:18:23.348Z,5.45
2024-01-14T19:20:50.006Z,6.43
2024-01-14T19:23:16.553Z,5.72
2024-01-14T19:33:50.536Z,6.00
2024-01-14T19:36:17.842Z,7.07
2024-01-14T19:38:44.511Z,6.68
2024-01-14T19:41:11.360Z,5.13
2024-01-14T19:44:08.594Z,5.70
2024-01-14T19:46:38.240Z,6.13
2024-01-14T19:49:05.281Z,6.53
2024-01-14T19:51:34.012Z,6.97
2024-01-14T19:54:04.934Z,6.70
2024-01-14T19:56:32.981Z,7.18
2024-01-14T19:58:59.760Z,6.22
2024-01-14T20:01:26.553Z,5.45
2024-01-14T20:03:53.210Z,8.07
2024-01-14T20:06:23.509Z,5.57
2024-01-14T20:08:50.754Z,6.65
2024-01-14T20:11:17.491Z,9.02
2024-01-14T20:13:44.321Z,6.07
2024-01-14T20:16:10.890Z,6.93
2024-01-14T20:18:38.581Z,6.32
2024-01-14T20:21:06.265Z,5.80
2024-01-14T20:23:33.100Z,5.25
2024-01-14T20:25:59.754Z,6.22
2024-01-14T20:28:26.459Z,6.35
2024-01-14T20:30:53.324Z,5.90
2024-01-14T20:33:20.124Z,5.72
2024-01-14T20:35:47.102Z,5.72
2024-01-14T20:38:14.457Z,6.03
2024-01-14T20:40:41.036Z,5.40
2024-01-14T20:43:07.743Z,5.43
2024-01-14T20:45:34.429Z,6.05
2024-01-14T20:48:01.464Z,6.20
2024-01-14T20:50:28.250Z,4.13
2024-01-14T20:52:55.031Z,4.60
2024-01-14T20:55:22.777Z,4.88
2024-01-14T20:57:49.793Z,4.75
2024-01-14T21:00:16.681Z,4.13
2024-01-14T21:02:43.350Z,4.47
2024-01-14T21:05:10.147Z,5.13
2024-01-14T21:07:36.992Z,5.72
2024-01-14T21:10:03.915Z,5.85
2024-01-14T21:12:30.529Z,5.63
2024-01-14T21:18:03.039Z,5.47
2024-01-14T21:20:50.001Z,5.90
2024-01-14T21:23:18.633Z,6.30
2024-01-14T21:25:46.158Z,6.97
2024-01-14T21:28:13.049Z,6.43
2024-01-14T21:30:43.594Z,5.80
2024-01-14T21:33:11.486Z,5.53
2024-01-14T21:35:38.430Z,5.47
2024-01-14T21:38:09.033Z,5.30
2024-01-14T21:40:37.389Z,6.72
2024-01-14T21:43:05.462Z,5.65
2024-01-14T21:45:32.438Z,5.60
2024-01-14T21:47:59.378Z,5.82
2024-01-14T21:50:27.138Z,6.07
2024-01-14T21:52:54.432Z,5.57
2024-01-14T21:55:21.734Z,5.22
2024-01-14T21:57:51.996Z,3.47
2024-01-14T22:00:19.153Z,2.72
2024-01-14T22:02:46.717Z,2.33
2024-01-14T22:05:14.061Z,1.83
2024-01-14T22:07:41.184Z,2.17
2024-01-14T22:10:08.452Z,2.15
2024-01-14T22:12:35.417Z,2.22
2024-01-14T22:15:02.785Z,1.95
2024-01-14T22:17:29.435Z,2.03
2024-01-14T22:19:57.073Z,1.95
2024-01-14T22:22:23.763Z,5.60
2024-01-14T22:24:50.528Z,6.03
2024-01-14T22:27:17.234Z,5.47
2024-01-14T22:29:43.884Z,6.20
2024-01-14T22:32:11.313Z,6.63
2024-01-14T22:34:38.350Z,5.18
2024-01-14T22:37:05.254Z,6.63
2024-01-14T22:39:32.462Z,6.72
2024-01-14T22:41:59.326Z,6.10
2024-01-14T22:44:26.161Z,5.05
2024-01-14T22:46:52.926Z,5.13
2024-01-14T22:49:20.180Z,4.47
2024-01-14T22:51:47.188Z,4.43
2024-01-14T22:54:14.530Z,4.05
2024-01-14T22:56:41.509Z,2.78
2024-01-14T22:59:09.529Z,3.72
2024-01-14T23:01:36.673Z,3.28
2024-01-14T23:04:04.041Z,1.50
2024-01-14T23:06:31.696Z,1.30
2024-01-14T23:08:58.817Z,0.80
2024-01-14T23:11:25.645Z,1.08
2024-01-14T23:13:52.294Z,0.93
2024-01-14T23:16:18.920Z,1.05
2024-01-14T23:18:45.710Z,1.48
2024-01-14T23:21:12.490Z,1.10
2024-01-14T23:23:39.138Z,1.30
2024-01-14T23:26:06.318Z,1.33
2024-01-14T23:28:33.008Z,0.90
2024-01-14T23:31:00.100Z,0.70
2024-01-14T23:33:27.099Z,0.80
2024-01-14T23:35:53.903Z,0.80
2024-01-14T23:38:20.703Z,0.85
2024-01-14T23:40:47.338Z,0.85
2024-01-14T23:43:14.010Z,1.20
2024-01-14T23:45:40.711Z,1.02
2024-01-14T23:48:07.975Z,4.43
2024-01-14T23:50:34.869Z,1.00
2024-01-14T23:53:01.498Z,0.95
2024-01-14T23:55:28.143Z,1.00
2024-01-14T23:57:54.885Z,0.82
